Time;durP1;ratioP1;P1;durP2;ratioP2;P2;SDS_P1;SDS_P2;PMS_P1;PMS_P2;Temp;Humidity;BMP_temperature;BMP_pressure;BME280_temperature;BME280_humidity;BME280_pressure;Samples;Min_cycle;Max_cycle;Signal;HPM_P1;HPM_P2
2021/06/04 00:01:04;;;;;;;0.20;0.20;;;;;;;;;;5096128;28;20415;-62
2021/06/04 00:03:31;;;;;;;0.20;0.20;;;;;;;;;;5109578;28;20512;-62
2021/06/04 00:05:57;;;;;;;0.20;0.20;;;;;;;;;;5099096;28;20418;-62
2021/06/04 00:08:24;;;;;;;0.20;0.20;;;;;;;;;;5093421;28;20449;-62
2021/06/04 00:10:52;;;;;;;0.20;0.20;;;;;;;;;;5101122;28;20511;-62
2021/06/04 00:13:24;;;;;;;0.20;0.20;;;;;;;;;;5091473;28;20427;-62
2021/06/04 00:15:51;;;;;;;0.20;0.20;;;;;;;;;;5102593;28;20424;-62
2021/06/04 00:18:17;;;;;;;0.20;0.20;;;;;;;;;;5103498;28;20481;-62
2021/06/04 00:20:43;;;;;;;0.20;0.20;;;;;;;;;;5098040;28;20407;-62
2021/06/04 00:23:10;;;;;;;0.20;0.20;;;;;;;;;;5092074;28;20420;-62
2021/06/04 00:25:37;;;;;;;0.20;0.20;;;;;;;;;;5094651;28;20933;-62
2021/06/04 00:28:03;;;;;;;0.20;0.20;;;;;;;;;;5111857;28;20407;-62
2021/06/04 00:30:29;;;;;;;0.20;0.20;;;;;;;;;;5104981;28;20163;-62
2021/06/04 00:32:55;;;;;;;0.20;0.20;;;;;;;;;;5100620;28;20477;-62
2021/06/04 00:35:22;;;;;;;0.20;0.20;;;;;;;;;;5095756;28;20800;-62
2021/06/04 00:37:48;;;;;;;0.20;0.20;;;;;;;;;;5111593;28;20422;-62
2021/06/04 00:40:19;;;;;;;0.20;0.20;;;;;;;;;;5108190;28;21021;-62
2021/06/04 00:42:45;;;;;;;0.20;0.20;;;;;;;;;;5103716;28;20953;-62
2021/06/04 00:45:13;;;;;;;0.20;0.20;;;;;;;;;;5109156;28;20445;-63
2021/06/04 00:47:39;;;;;;;0.20;0.20;;;;;;;;;;5096542;28;20419;-62
2021/06/04 00:50:08;;;;;;;0.20;0.20;;;;;;;;;;5112102;28;20182;-62
2021/06/04 00:52:36;;;;;;;0.20;0.20;;;;;;;;;;5094937;28;20991;-62
2021/06/04 00:55:02;;;;;;;0.20;0.20;;;;;;;;;;5095196;28;20413;-62
2021/06/04 00:57:29;;;;;;;0.20;0.20;;;;;;;;;;5115284;28;20403;-62
2021/06/04 01:00:02;;;;;;;0.30;0.30;;;;;;;;;;5099143;28;20194;-62
2021/06/04 01:02:29;;;;;;;0.20;0.20;;;;;;;;;;5106865;28;20429;-62
2021/06/04 01:04:55;;;;;;;0.20;0.20;;;;;;;;;;5099006;28;20990;-62
2021/06/04 01:07:39;;;;;;;0.20;0.20;;;;;;;;;;5113466;28;20968;-62
2021/06/04 01:10:14;;;;;;;0.20;0.20;;;;;;;;;;5104222;28;20454;-62
2021/06/04 01:12:47;;;;;;;0.20;0.20;;;;;;;;;;5113550;28;20455;-62
2021/06/04 01:15:24;;;;;;;0.20;0.20;;;;;;;;;;5114813;28;20417;-62
2021/06/04 01:17:53;;;;;;;0.20;0.20;;;;;;;;;;5114001;28;21008;-62
2021/06/04 01:20:21;;;;;;;0.20;0.20;;;;;;;;;;5114634;28;20386;-62
2021/06/04 01:23:03;;;;;;;0.20;0.20;;;;;;;;;;5101739;28;20460;-62
2021/06/04 01:25:39;;;;;;;0.20;0.20;;;;;;;;;;5105224;28;20401;-62
2021/06/04 01:28:23;;;;;;;0.20;0.20;;;;;;;;;;5094076;28;20439;-62
2021/06/04 01:31:08;;;;;;;0.20;0.20;;;;;;;;;;5107527;28;20435;-62
2021/06/04 01:33:54;;;;;;;0.20;0.20;;;;;;;;;;5099812;28;20749;-62
2021/06/04 01:36:22;;;;;;;0.20;0.20;;;;;;;;;;5093445;28;20464;-62
2021/06/04 01:38:49;;;;;;;0.20;0.20;;;;;;;;;;5109350;28;20488;-62
2021/06/04 01:41:16;;;;;;;0.20;0.20;;;;;;;;;;5114364;28;20407;-62
2021/06/04 01:43:45;;;;;;;0.20;0.20;;;;;;;;;;5105561;28;20287;-62
2021/06/04 01:46:22;;;;;;;0.20;0.20;;;;;;;;;;5114297;28;20399;-62
2021/06/04 01:48:50;;;;;;;0.20;0.20;;;;;;;;;;5098938;28;20459;-62
2021/06/04 01:51:27;;;;;;;0.20;0.20;;;;;;;;;;5104045;28;20423;-62
2021/06/04 01:54:02;;;;;;;0.20;0.20;;;;;;;;;;5113366;28;20421;-62
2021/06/04 01:56:31;;;;;;;0.30;0.30;;;;;;;;;;5097795;28;20812;-62
2021/06/04 01:59:02;;;;;;;0.20;0.20;;;;;;;;;;5097269;28;20440;-62
2021/06/04 02:01:39;;;;;;;0.20;0.20;;;;;;;;;;5086910;28;20430;-62
2021/06/04 02:04:10;;;;;;;0.20;0.20;;;;;;;;;;5099019;28;20482;-62
2021/06/04 02:06:36;;;;;;;0.20;0.20;;;;;;;;;;5108123;28;20502;-62
2021/06/04 02:09:06;;;;;;;0.20;0.20;;;;;;;;;;5093186;28;20441;-62
2021/06/04 02:11:33;;;;;;;0.20;0.20;;;;;;;;;;5097100;28;20483;-62
2021/06/04 02:14:01;;;;;;;0.20;0.20;;;;;;;;;;5112056;28;20968;-62
2021/06/04 02:16:27;;;;;;;0.20;0.20;;;;;;;;;;5102093;28;20415;-62
2021/06/04 02:19:12;;;;;;;0.20;0.20;;;;;;;;;;5113322;28;20500;-61
2021/06/04 02:21:44;;;;;;;0.20;0.20;;;;;;;;;;5112645;28;20419;-62
2021/06/04 02:24:16;;;;;;;0.20;0.20;;;;;;;;;;5110306;28;20462;-62
2021/06/04 02:26:50;;;;;;;0.20;0.20;;;;;;;;;;5093089;28;20175;-62
2021/06/04 02:29:24;;;;;;;0.20;0.20;;;;;;;;;;5099035;28;20406;-62
2021/06/04 02:31:57;;;;;;;0.20;0.20;;;;;;;;;;5108718;28;20472;-62
2021/06/04 02:34:29;;;;;;;0.30;0.30;;;;;;;;;;5092804;28;20412;-62
2021/06/04 02:37:07;;;;;;;0.30;0.30;;;;;;;;;;5097305;28;20424;-62
2021/06/04 02:39:36;;;;;;;0.30;0.30;;;;;;;;;;5112692;28;20189;-62
2021/06/04 02:42:07;;;;;;;0.20;0.20;;;;;;;;;;5107434;28;20423;-62
2021/06/04 02:44:39;;;;;;;0.20;0.20;;;;;;;;;;5094840;28;20451;-62
2021/06/04 02:47:11;;;;;;;0.20;0.20;;;;;;;;;;5113056;28;20396;-62
2021/06/04 02:49:38;;;;;;;0.20;0.20;;;;;;;;;;5110433;28;20411;-62
2021/06/04 02:52:09;;;;;;;0.20;0.20;;;;;;;;;;5092699;28;20451;-62
2021/06/04 02:54:36;;;;;;;0.30;0.30;;;;;;;;;;5094051;28;20607;-62
2021/06/04 02:57:07;;;;;;;0.20;0.20;;;;;;;;;;5110698;28;20422;-62
2021/06/04 02:59:37;;;;;;;0.20;0.20;;;;;;;;;;5110807;28;20239;-62
2021/06/04 03:02:07;;;;;;;0.20;0.20;;;;;;;;;;5099391;28;20506;-62
2021/06/04 03:04:34;;;;;;;0.30;0.30;;;;;;;;;;5102470;28;20455;-62
2021/06/04 03:07:03;;;;;;;0.20;0.20;;;;;;;;;;5092368;28;20401;-62
2021/06/04 03:09:31;;;;;;;0.20;0.20;;;;;;;;;;5106721;28;20953;-62
2021/06/04 03:12:00;;;;;;;0.20;0.20;;;;;;;;;;5111435;28;20809;-62
2021/06/04 03:14:26;;;;;;;0.20;0.20;;;;;;;;;;5079978;28;20212;-62
2021/06/04 03:16:53;;;;;;;0.30;0.30;;;;;;;;;;5074034;28;20178;-62
2021/06/04 03:19:20;;;;;;;0.20;0.20;;;;;;;;;;5099972;28;20848;-62
2021/06/04 03:21:49;;;;;;;0.20;0.20;;;;;;;;;;5096008;28;20178;-62
2021/06/04 03:24:17;;;;;;;0.20;0.20;;;;;;;;;;5077017;28;20483;-63
2021/06/04 03:26:43;;;;;;;0.20;0.20;;;;;;;;;;5112294;28;20416;-62
2021/06/04 03:29:13;;;;;;;0.20;0.20;;;;;;;;;;5112087;28;20430;-62
2021/06/04 03:31:41;;;;;;;0.20;0.20;;;;;;;;;;5109873;28;20169;-62
2021/06/04 03:34:08;;;;;;;0.30;0.30;;;;;;;;;;5106143;28;20900;-62
2021/06/04 03:36:36;;;;;;;0.20;0.20;;;;;;;;;;5099294;28;20389;-62
2021/06/04 03:39:04;;;;;;;0.20;0.20;;;;;;;;;;5111816;28;20434;-62
2021/06/04 03:41:33;;;;;;;0.20;0.20;;;;;;;;;;5100685;28;20950;-62
2021/06/04 03:44:00;;;;;;;0.20;0.20;;;;;;;;;;5091727;28;20448;-62
2021/06/04 03:46:26;;;;;;;0.20;0.20;;;;;;;;;;5102734;28;20490;-62
2021/06/04 03:48:52;;;;;;;0.20;0.20;;;;;;;;;;5098568;28;20501;-62
2021/06/04 03:51:20;;;;;;;0.20;0.20;;;;;;;;;;5112023;28;20386;-62
2021/06/04 03:53:47;;;;;;;0.20;0.20;;;;;;;;;;5105700;28;20466;-62
2021/06/04 03:56:14;;;;;;;0.30;0.30;;;;;;;;;;5111979;28;20394;-62
2021/06/04 03:58:41;;;;;;;0.20;0.20;;;;;;;;;;5107882;28;20435;-62
2021/06/04 04:01:10;;;;;;;0.20;0.20;;;;;;;;;;5110388;28;20424;-62
2021/06/04 04:03:37;;;;;;;0.20;0.20;;;;;;;;;;5098944;28;20455;-62
2021/06/04 04:06:03;;;;;;;0.20;0.20;;;;;;;;;;5111844;28;20443;-62
2021/06/04 04:08:30;;;;;;;0.20;0.20;;;;;;;;;;5110726;28;20453;-62
2021/06/04 04:10:57;;;;;;;0.23;0.23;;;;;;;;;;5112017;28;20403;-62
2021/06/04 04:13:23;;;;;;;0.30;0.30;;;;;;;;;;5109255;28;20427;-62
2021/06/04 04:15:50;;;;;;;0.20;0.20;;;;;;;;;;5111446;28;20405;-62
2021/06/04 04:18:16;;;;;;;0.30;0.30;;;;;;;;;;5110319;28;20438;-63
2021/06/04 04:20:44;;;;;;;0.20;0.20;;;;;;;;;;5110161;28;20397;-62
2021/06/04 04:23:12;;;;;;;0.20;0.20;;;;;;;;;;5111729;28;20385;-62
2021/06/04 04:25:40;;;;;;;0.20;0.20;;;;;;;;;;5102329;28;20757;-62
2021/06/04 04:28:07;;;;;;;0.20;0.20;;;;;;;;;;5101942;28;20183;-62
2021/06/04 04:30:34;;;;;;;0.20;0.20;;;;;;;;;;5096509;28;20439;-62
2021/06/04 04:33:00;;;;;;;0.20;0.20;;;;;;;;;;5106691;28;20402;-62
2021/06/04 04:35:29;;;;;;;0.20;0.20;;;;;;;;;;5095337;28;20483;-62
2021/06/04 04:37:55;;;;;;;0.20;0.20;;;;;;;;;;5095060;28;20417;-62
2021/06/04 04:40:22;;;;;;;0.20;0.20;;;;;;;;;;5095965;28;20503;-62
2021/06/04 04:42:48;;;;;;;0.20;0.20;;;;;;;;;;5095150;28;20412;-62
2021/06/04 04:45:16;;;;;;;0.20;0.20;;;;;;;;;;5095290;28;20455;-62
2021/06/04 04:47:42;;;;;;;0.20;0.20;;;;;;;;;;5095413;28;20531;-62
2021/06/04 04:50:09;;;;;;;0.20;0.20;;;;;;;;;;5107856;28;20435;-62
2021/06/04 04:52:35;;;;;;;0.20;0.20;;;;;;;;;;5115359;28;20869;-62
2021/06/04 04:55:01;;;;;;;0.20;0.20;;;;;;;;;;5113007;28;20411;-62
2021/06/04 04:57:28;;;;;;;0.20;0.20;;;;;;;;;;5115292;28;20408;-62
2021/06/04 04:59:54;;;;;;;0.20;0.20;;;;;;;;;;5113523;28;20455;-62
2021/06/04 05:02:21;;;;;;;0.20;0.20;;;;;;;;;;5113545;28;20398;-62
2021/06/04 05:04:47;;;;;;;0.20;0.20;;;;;;;;;;5114632;27;20458;-62
2021/06/04 05:07:13;;;;;;;0.20;0.20;;;;;;;;;;5108145;28;20444;-62
2021/06/04 05:09:40;;;;;;;0.20;0.20;;;;;;;;;;5094982;28;20776;-62
2021/06/04 05:12:06;;;;;;;0.20;0.20;;;;;;;;;;5094583;28;20397;-62
2021/06/04 05:14:33;;;;;;;0.20;0.20;;;;;;;;;;5094472;28;20443;-62
2021/06/04 05:17:00;;;;;;;0.20;0.20;;;;;;;;;;5094558;28;20408;-62
2021/06/04 05:19:26;;;;;;;0.20;0.20;;;;;;;;;;5095271;28;20509;-62
2021/06/04 05:21:52;;;;;;;0.20;0.20;;;;;;;;;;5094482;28;20420;-62
2021/06/04 05:24:18;;;;;;;0.20;0.20;;;;;;;;;;5094300;28;20430;-62
2021/06/04 05:26:44;;;;;;;0.20;0.20;;;;;;;;;;5094328;28;20885;-62
2021/06/04 05:29:10;;;;;;;0.20;0.20;;;;;;;;;;5094055;28;20444;-62
2021/06/04 05:31:38;;;;;;;0.20;0.20;;;;;;;;;;5094152;28;20404;-62
2021/06/04 05:34:04;;;;;;;0.20;0.20;;;;;;;;;;5094335;28;20412;-62
2021/06/04 05:36:33;;;;;;;0.20;0.20;;;;;;;;;;5093134;28;20823;-62
2021/06/04 05:39:06;;;;;;;0.20;0.20;;;;;;;;;;5094003;28;20815;-62
2021/06/04 05:41:32;;;;;;;0.20;0.20;;;;;;;;;;5094021;28;20769;-62
2021/06/04 05:43:58;;;;;;;0.20;0.20;;;;;;;;;;5093833;28;20964;-62
2021/06/04 05:46:24;;;;;;;0.20;0.20;;;;;;;;;;5093741;28;20469;-62
2021/06/04 05:48:50;;;;;;;0.20;0.20;;;;;;;;;;5094110;28;20480;-62
2021/06/04 05:51:19;;;;;;;0.20;0.20;;;;;;;;;;5075682;28;20404;-62
2021/06/04 05:53:45;;;;;;;0.20;0.20;;;;;;;;;;5093792;28;20393;-62
2021/06/04 05:56:12;;;;;;;0.20;0.20;;;;;;;;;;5093691;28;20417;-62
2021/06/04 05:58:38;;;;;;;0.20;0.20;;;;;;;;;;5093342;28;20428;-62
2021/06/04 06:01:06;;;;;;;0.20;0.20;;;;;;;;;;5093815;28;20688;-62
2021/06/04 06:03:33;;;;;;;0.20;0.20;;;;;;;;;;5093529;28;20491;-62
2021/06/04 06:06:00;;;;;;;0.20;0.20;;;;;;;;;;5093654;28;20387;-62
2021/06/04 06:08:26;;;;;;;0.20;0.20;;;;;;;;;;5098612;28;20427;-62
2021/06/04 06:10:52;;;;;;;0.20;0.20;;;;;;;;;;5113701;28;20404;-63
2021/06/04 06:13:19;;;;;;;0.20;0.20;;;;;;;;;;5129380;27;20537;-63
2021/06/04 06:15:45;;;;;;;0.20;0.20;;;;;;;;;;5133678;27;20402;-63
2021/06/04 06:18:11;;;;;;;0.20;0.20;;;;;;;;;;5133520;27;21036;-62
2021/06/04 06:20:39;;;;;;;0.20;0.20;;;;;;;;;;5133347;27;20760;-63
2021/06/04 06:23:05;;;;;;;0.20;0.20;;;;;;;;;;5133524;27;20406;-63
2021/06/04 06:25:33;;;;;;;0.20;0.20;;;;;;;;;;5133090;27;20485;-63
2021/06/04 06:28:00;;;;;;;0.20;0.20;;;;;;;;;;5133246;27;20781;-63
2021/06/04 06:30:28;;;;;;;0.20;0.20;;;;;;;;;;5133164;27;20373;-63
2021/06/04 06:32:54;;;;;;;0.20;0.20;;;;;;;;;;5133369;27;20822;-62
2021/06/04 06:35:46;;;;;;;0.20;0.20;;;;;;;;;;5133898;27;20406;-62
2021/06/04 06:38:12;;;;;;;0.20;0.20;;;;;;;;;;5128593;27;20435;-62
2021/06/04 06:40:39;;;;;;;0.20;0.20;;;;;;;;;;5133072;27;20969;-62
2021/06/04 06:43:06;;;;;;;0.20;0.20;;;;;;;;;;5133145;27;20744;-62
2021/06/04 06:45:32;;;;;;;0.20;0.20;;;;;;;;;;5132950;27;20429;-62
2021/06/04 06:47:58;;;;;;;0.20;0.20;;;;;;;;;;5131495;27;20912;-62
2021/06/04 06:50:25;;;;;;;0.20;0.20;;;;;;;;;;5132328;27;20415;-62
2021/06/04 06:52:52;;;;;;;0.20;0.20;;;;;;;;;;5114825;27;20438;-62
2021/06/04 06:55:18;;;;;;;0.20;0.20;;;;;;;;;;5133176;27;20759;-62
2021/06/04 06:57:44;;;;;;;0.20;0.20;;;;;;;;;;5132916;27;20407;-62
2021/06/04 07:00:14;;;;;;;0.20;0.20;;;;;;;;;;5132780;27;20465;-62
2021/06/04 07:02:41;;;;;;;0.20;0.20;;;;;;;;;;5133438;27;20736;-63
2021/06/04 07:05:07;;;;;;;0.20;0.20;;;;;;;;;;5114439;27;20452;-63
2021/06/04 07:07:33;;;;;;;0.20;0.20;;;;;;;;;;5132803;27;20418;-63
2021/06/04 07:09:59;;;;;;;0.20;0.20;;;;;;;;;;5132578;27;20749;-62
2021/06/04 07:12:25;;;;;;;0.20;0.20;;;;;;;;;;5132865;27;20891;-62
2021/06/04 07:14:52;;;;;;;0.20;0.20;;;;;;;;;;5132714;27;20398;-62
2021/06/04 07:17:18;;;;;;;0.20;0.20;;;;;;;;;;5132561;27;20377;-63
2021/06/04 07:19:46;;;;;;;0.20;0.20;;;;;;;;;;5132288;27;20525;-62
2021/06/04 07:22:12;;;;;;;0.20;0.20;;;;;;;;;;5132577;27;20463;-62
2021/06/04 07:24:37;;;;;;;0.20;0.20;;;;;;;;;;5132355;27;20512;-62
2021/06/04 07:27:04;;;;;;;0.20;0.20;;;;;;;;;;5132562;27;20430;-63
2021/06/04 07:29:31;;;;;;;0.20;0.20;;;;;;;;;;5132077;27;20509;-62
2021/06/04 07:31:57;;;;;;;0.20;0.20;;;;;;;;;;5132397;27;20398;-63
2021/06/04 07:34:24;;;;;;;0.20;0.20;;;;;;;;;;5132398;27;20469;-62
2021/06/04 07:36:51;;;;;;;0.20;0.20;;;;;;;;;;5132312;27;20887;-63
2021/06/04 07:39:19;;;;;;;0.20;0.20;;;;;;;;;;5131962;27;20434;-63
2021/06/04 07:41:45;;;;;;;0.20;0.20;;;;;;;;;;5131489;27;20403;-63
2021/06/04 07:44:13;;;;;;;0.20;0.20;;;;;;;;;;5131798;27;20463;-63
2021/06/04 07:46:39;;;;;;;0.20;0.20;;;;;;;;;;5132232;27;20844;-63
2021/06/04 07:49:06;;;;;;;0.20;0.20;;;;;;;;;;5131991;27;20465;-63
2021/06/04 07:51:36;;;;;;;0.20;0.20;;;;;;;;;;5132291;27;20490;-63
2021/06/04 07:54:03;;;;;;;0.20;0.20;;;;;;;;;;5132414;27;20369;-63
2021/06/04 07:56:29;;;;;;;0.20;0.20;;;;;;;;;;5132176;28;20833;-63
2021/06/04 07:58:55;;;;;;;0.20;0.20;;;;;;;;;;5131225;27;20829;-63
2021/06/04 08:01:22;;;;;;;0.20;0.20;;;;;;;;;;5131803;28;20410;-63
2021/06/04 08:03:48;;;;;;;0.20;0.20;;;;;;;;;;5132085;28;20457;-63
2021/06/04 08:06:16;;;;;;;0.20;0.20;;;;;;;;;;5131984;28;20407;-63
2021/06/04 08:08:42;;;;;;;0.20;0.20;;;;;;;;;;5130676;28;20393;-62
2021/06/04 08:11:10;;;;;;;0.20;0.20;;;;;;;;;;5132139;28;20398;-62
2021/06/04 08:13:36;;;;;;;0.20;0.20;;;;;;;;;;5131833;28;20402;-62
2021/06/04 08:16:05;;;;;;;0.20;0.20;;;;;;;;;;5131910;28;20441;-63
2021/06/04 08:18:32;;;;;;;0.20;0.20;;;;;;;;;;5131375;28;20438;-62
2021/06/04 08:20:59;;;;;;;0.20;0.20;;;;;;;;;;5132067;28;20415;-62
2021/06/04 08:23:27;;;;;;;0.20;0.20;;;;;;;;;;5131852;28;20495;-62
2021/06/04 08:25:55;;;;;;;0.20;0.20;;;;;;;;;;5131739;28;20516;-62
2021/06/04 08:28:21;;;;;;;0.20;0.20;;;;;;;;;;5131721;28;20400;-62
2021/06/04 08:30:49;;;;;;;0.20;0.20;;;;;;;;;;5131604;28;20381;-62
2021/06/04 08:33:23;;;;;;;0.20;0.20;;;;;;;;;;5131762;28;20567;-62
2021/06/04 08:35:50;;;;;;;0.20;0.20;;;;;;;;;;5113608;28;20944;-62
2021/06/04 08:38:16;;;;;;;0.20;0.20;;;;;;;;;;5131680;28;20389;-62
2021/06/04 08:40:42;;;;;;;0.20;0.20;;;;;;;;;;5131754;28;20402;-63
2021/06/04 08:43:24;;;;;;;0.20;0.20;;;;;;;;;;5131753;28;20841;-63
2021/06/04 08:46:11;;;;;;;0.20;0.20;;;;;;;;;;5131676;28;20790;-61
2021/06/04 08:48:41;;;;;;;0.20;0.20;;;;;;;;;;5131230;28;20976;-61
2021/06/04 08:51:18;;;;;;;0.20;0.20;;;;;;;;;;5113081;28;20454;-61
2021/06/04 08:53:44;;;;;;;0.20;0.20;;;;;;;;;;5131641;28;20461;-62
2021/06/04 08:56:11;;;;;;;0.20;0.20;;;;;;;;;;5131656;28;20409;-61
2021/06/04 08:58:55;;;;;;;0.20;0.20;;;;;;;;;;5131267;28;20418;-61
2021/06/04 09:01:25;;;;;;;0.17;0.17;;;;;;;;;;5131637;28;20398;-62
2021/06/04 09:03:54;;;;;;;0.20;0.20;;;;;;;;;;5131532;28;20450;-62
2021/06/04 09:06:27;;;;;;;0.17;0.17;;;;;;;;;;5131349;28;20416;-62
2021/06/04 09:08:53;;;;;;;0.20;0.20;;;;;;;;;;5131329;28;20441;-62
2021/06/04 09:11:26;;;;;;;0.20;0.20;;;;;;;;;;5133065;27;20442;-62
2021/06/04 09:13:52;;;;;;;0.20;0.20;;;;;;;;;;5135366;27;20413;-61
2021/06/04 09:16:30;;;;;;;0.20;0.20;;;;;;;;;;5135542;27;20407;-63
2021/06/04 09:19:03;;;;;;;0.20;0.20;;;;;;;;;;5134547;27;20469;-63
2021/06/04 09:21:32;;;;;;;0.20;0.20;;;;;;;;;;5134977;27;20958;-63
2021/06/04 09:24:00;;;;;;;0.20;0.20;;;;;;;;;;5134810;27;20533;-63
2021/06/04 09:26:28;;;;;;;0.20;0.20;;;;;;;;;;5134958;27;20402;-63
2021/06/04 09:29:05;;;;;;;0.20;0.20;;;;;;;;;;5134713;27;20926;-63
2021/06/04 09:31:36;;;;;;;0.20;0.20;;;;;;;;;;5134840;27;20531;-62
2021/06/04 09:34:28;;;;;;;0.20;0.20;;;;;;;;;;5134745;27;20980;-62
2021/06/04 09:36:54;;;;;;;0.20;0.20;;;;;;;;;;5134409;27;20490;-62
2021/06/04 09:39:41;;;;;;;0.20;0.20;;;;;;;;;;5134103;27;20538;-62
2021/06/04 09:42:13;;;;;;;0.20;0.20;;;;;;;;;;5134466;27;20402;-62
2021/06/04 09:44:50;;;;;;;0.20;0.20;;;;;;;;;;5134497;27;20450;-62
2021/06/04 09:47:25;;;;;;;0.20;0.20;;;;;;;;;;5134383;27;20895;-63
2021/06/04 09:49:52;;;;;;;0.20;0.20;;;;;;;;;;5134395;27;20841;-63
2021/06/04 09:52:37;;;;;;;0.20;0.20;;;;;;;;;;5134632;27;20409;-63
2021/06/04 09:55:03;;;;;;;0.20;0.20;;;;;;;;;;5134620;27;20842;-63
2021/06/04 09:57:29;;;;;;;0.20;0.20;;;;;;;;;;5134861;27;20404;-62
2021/06/04 10:00:12;;;;;;;0.20;0.20;;;;;;;;;;5133950;27;20427;-63
2021/06/04 10:02:38;;;;;;;0.20;0.20;;;;;;;;;;5134148;27;20479;-62
2021/06/04 10:05:40;;;;;;;0.20;0.20;;;;;;;;;;5134210;27;20497;-62
2021/06/04 10:08:22;;;;;;;0.20;0.20;;;;;;;;;;5030548;28;20425;-62
2021/06/04 10:11:02;;;;;;;0.20;0.20;;;;;;;;;;5106112;27;20413;-62
2021/06/04 10:13:33;;;;;;;0.20;0.20;;;;;;;;;;5133961;27;20889;-62
2021/06/04 10:16:02;;;;;;;0.20;0.20;;;;;;;;;;5133937;27;20937;-62
2021/06/04 10:18:37;;;;;;;0.20;0.20;;;;;;;;;;5133434;27;20442;-62
2021/06/04 10:21:16;;;;;;;0.20;0.20;;;;;;;;;;5133739;27;20399;-63
2021/06/04 10:23:44;;;;;;;0.20;0.20;;;;;;;;;;5114058;27;20520;-63
2021/06/04 10:26:29;;;;;;;0.20;0.20;;;;;;;;;;5132483;27;20451;-63
2021/06/04 10:28:59;;;;;;;0.20;0.20;;;;;;;;;;5132618;27;20411;-63
2021/06/04 10:31:43;;;;;;;0.20;0.20;;;;;;;;;;5133876;27;20396;-63
2021/06/04 10:34:28;;;;;;;0.20;0.20;;;;;;;;;;5133980;27;20403;-62
2021/06/04 10:36:56;;;;;;;0.20;0.20;;;;;;;;;;5132327;27;20413;-62
2021/06/04 10:39:39;;;;;;;0.20;0.20;;;;;;;;;;5133166;27;20428;-62
2021/06/04 10:42:13;;;;;;;0.20;0.20;;;;;;;;;;5133106;27;20424;-62
2021/06/04 10:44:39;;;;;;;0.20;0.20;;;;;;;;;;5133343;27;20931;-62
2021/06/04 10:47:08;;;;;;;0.20;0.20;;;;;;;;;;5133492;27;20418;-62
2021/06/04 10:49:54;;;;;;;0.20;0.20;;;;;;;;;;5133032;27;20432;-62
2021/06/04 10:52:26;;;;;;;0.20;0.20;;;;;;;;;;5133306;27;20394;-62
2021/06/04 10:54:52;;;;;;;0.20;0.20;;;;;;;;;;5133210;27;20441;-62
2021/06/04 10:57:18;;;;;;;0.20;0.20;;;;;;;;;;5133062;27;20407;-61
2021/06/04 10:59:57;;;;;;;0.20;0.20;;;;;;;;;;5114428;27;20811;-62
2021/06/04 11:02:42;;;;;;;0.20;0.20;;;;;;;;;;5133038;27;20428;-61
2021/06/04 11:05:10;;;;;;;0.20;0.20;;;;;;;;;;5132997;27;20453;-61
2021/06/04 11:07:40;;;;;;;0.20;0.20;;;;;;;;;;5132955;27;20378;-62
2021/06/04 11:10:09;;;;;;;0.20;0.20;;;;;;;;;;5132713;27;20835;-61
2021/06/04 11:12:44;;;;;;;0.20;0.20;;;;;;;;;;5132572;27;20398;-61
2021/06/04 11:15:18;;;;;;;0.20;0.20;;;;;;;;;;5132535;27;20798;-61
2021/06/04 11:17:49;;;;;;;0.20;0.20;;;;;;;;;;5132858;27;20373;-61
2021/06/04 11:20:27;;;;;;;0.20;0.20;;;;;;;;;;5115088;27;20941;-61
2021/06/04 11:22:59;;;;;;;0.20;0.20;;;;;;;;;;5132805;27;20398;-61
2021/06/04 11:25:35;;;;;;;0.20;0.20;;;;;;;;;;5132564;27;20472;-61
2021/06/04 11:28:16;;;;;;;0.20;0.20;;;;;;;;;;5132447;27;20402;-61
2021/06/04 11:30:42;;;;;;;0.20;0.20;;;;;;;;;;5131006;27;20398;-61
2021/06/04 11:33:16;;;;;;;0.20;0.20;;;;;;;;;;5130657;27;20458;-61
2021/06/04 11:35:46;;;;;;;0.20;0.20;;;;;;;;;;5130942;27;20406;-62
2021/06/04 11:38:24;;;;;;;0.20;0.20;;;;;;;;;;5131611;27;20729;-61
2021/06/04 11:40:55;;;;;;;0.20;0.20;;;;;;;;;;5113974;27;20746;-61
2021/06/04 11:43:21;;;;;;;0.20;0.20;;;;;;;;;;5132286;27;20439;-61
2021/06/04 11:45:48;;;;;;;0.20;0.20;;;;;;;;;;5132335;27;20505;-61
2021/06/04 11:48:26;;;;;;;0.20;0.20;;;;;;;;;;5131978;27;20815;-62
2021/06/04 11:51:12;;;;;;;0.20;0.20;;;;;;;;;;5132048;27;20395;-62
2021/06/04 11:53:38;;;;;;;0.20;0.20;;;;;;;;;;5132126;27;20427;-62
2021/06/04 11:56:09;;;;;;;0.20;0.20;;;;;;;;;;5130602;27;20381;-62
2021/06/04 11:58:44;;;;;;;0.20;0.20;;;;;;;;;;5131574;28;20791;-62
2021/06/04 12:01:22;;;;;;;0.20;0.20;;;;;;;;;;5132097;28;20498;-62
2021/06/04 12:04:00;;;;;;;0.20;0.20;;;;;;;;;;5131932;28;20424;-62
2021/06/04 12:06:27;;;;;;;0.20;0.20;;;;;;;;;;5131806;28;20422;-61
2021/06/04 12:08:55;;;;;;;0.20;0.20;;;;;;;;;;5131743;28;20903;-61
2021/06/04 12:11:21;;;;;;;0.20;0.20;;;;;;;;;;5132019;28;20373;-62
2021/06/04 12:13:51;;;;;;;0.20;0.20;;;;;;;;;;5131804;28;20794;-62
2021/06/04 12:16:26;;;;;;;0.20;0.20;;;;;;;;;;5132314;28;20898;-61
2021/06/04 12:18:59;;;;;;;0.20;0.20;;;;;;;;;;5131247;28;20923;-62
2021/06/04 12:21:41;;;;;;;0.20;0.20;;;;;;;;;;5131995;28;20417;-61
2021/06/04 12:24:09;;;;;;;0.20;0.20;;;;;;;;;;5131923;28;20454;-61
2021/06/04 12:26:38;;;;;;;0.20;0.20;;;;;;;;;;5132005;28;20744;-61
2021/06/04 12:29:22;;;;;;;0.20;0.20;;;;;;;;;;5131850;28;20426;-61
2021/06/04 12:31:53;;;;;;;0.20;0.20;;;;;;;;;;5131850;28;20418;-62
2021/06/04 12:34:55;;;;;;;0.20;0.20;;;;;;;;;;5131810;28;20382;-61
2021/06/04 12:37:22;;;;;;;0.20;0.20;;;;;;;;;;5131924;28;20376;-61
2021/06/04 12:39:50;;;;;;;0.20;0.20;;;;;;;;;;5131510;28;20789;-61
2021/06/04 12:42:27;;;;;;;0.20;0.20;;;;;;;;;;5131774;28;20402;-61
2021/06/04 12:45:00;;;;;;;0.20;0.20;;;;;;;;;;5132055;27;20544;-62
2021/06/04 12:47:28;;;;;;;0.20;0.20;;;;;;;;;;5135233;27;20441;-62
2021/06/04 12:50:05;;;;;;;0.20;0.20;;;;;;;;;;5135362;27;20932;-62
2021/06/04 12:52:31;;;;;;;0.20;0.20;;;;;;;;;;5135404;27;20429;-62
2021/06/04 12:55:11;;;;;;;0.20;0.20;;;;;;;;;;5135612;27;20925;-62
2021/06/04 12:57:37;;;;;;;0.20;0.20;;;;;;;;;;5135502;27;20406;-62
2021/06/04 13:00:15;;;;;;;0.20;0.20;;;;;;;;;;5135187;27;20432;-62
2021/06/04 13:02:41;;;;;;;0.20;0.20;;;;;;;;;;5135856;27;20500;-62
2021/06/04 13:05:09;;;;;;;0.20;0.20;;;;;;;;;;5135383;27;20998;-63
2021/06/04 13:07:37;;;;;;;0.20;0.20;;;;;;;;;;5135360;27;20402;-63
2021/06/04 13:10:12;;;;;;;0.20;0.20;;;;;;;;;;5135098;27;20423;-63
2021/06/04 13:12:39;;;;;;;0.20;0.20;;;;;;;;;;5135399;27;20800;-63
2021/06/04 13:15:31;;;;;;;0.20;0.20;;;;;;;;;;5116905;27;20760;-62
2021/06/04 13:18:03;;;;;;;0.20;0.20;;;;;;;;;;5130642;27;20423;-63
2021/06/04 13:20:30;;;;;;;0.20;0.20;;;;;;;;;;5134976;27;20410;-63
2021/06/04 13:23:09;;;;;;;0.20;0.20;;;;;;;;;;5134908;27;20445;-63
2021/06/04 13:25:35;;;;;;;0.20;0.20;;;;;;;;;;5136832;27;20973;-64
2021/06/04 13:28:01;;;;;;;0.20;0.20;;;;;;;;;;5139917;27;20377;-63
2021/06/04 13:30:29;;;;;;;0.20;0.20;;;;;;;;;;5138416;27;20406;-62
2021/06/04 13:32:59;;;;;;;0.20;0.20;;;;;;;;;;5134729;27;20506;-62
2021/06/04 13:35:39;;;;;;;0.20;0.20;;;;;;;;;;5118382;27;20412;-62
2021/06/04 13:38:06;;;;;;;0.20;0.20;;;;;;;;;;5114405;28;20423;-62
2021/06/04 13:40:34;;;;;;;0.20;0.20;;;;;;;;;;5114454;28;20404;-62
2021/06/04 13:43:08;;;;;;;0.20;0.20;;;;;;;;;;5114489;28;20499;-62
2021/06/04 13:45:37;;;;;;;0.20;0.20;;;;;;;;;;5114103;28;20447;-62
2021/06/04 13:48:16;;;;;;;0.20;0.20;;;;;;;;;;5114038;28;20407;-61
2021/06/04 13:50:46;;;;;;;0.20;0.20;;;;;;;;;;5113813;28;20410;-61
2021/06/04 13:53:12;;;;;;;0.20;0.20;;;;;;;;;;5114022;28;20450;-61
2021/06/04 13:55:39;;;;;;;0.20;0.20;;;;;;;;;;5113633;28;20408;-62
2021/06/04 13:58:25;;;;;;;0.20;0.20;;;;;;;;;;5113001;28;20414;-62
2021/06/04 14:01:09;;;;;;;0.20;0.20;;;;;;;;;;5114002;28;20382;-62
2021/06/04 14:03:38;;;;;;;0.20;0.20;;;;;;;;;;5113562;28;20399;-62
2021/06/04 14:06:06;;;;;;;0.20;0.20;;;;;;;;;;5113501;28;20414;-62
2021/06/04 14:08:33;;;;;;;0.20;0.20;;;;;;;;;;5113049;28;20441;-62
2021/06/04 14:11:00;;;;;;;0.20;0.20;;;;;;;;;;5113621;28;20395;-62
2021/06/04 14:13:28;;;;;;;0.20;0.20;;;;;;;;;;5113698;28;20465;-62
2021/06/04 14:16:02;;;;;;;0.20;0.20;;;;;;;;;;5113805;28;20417;-63
2021/06/04 14:18:34;;;;;;;0.20;0.20;;;;;;;;;;5113023;28;20496;-62
2021/06/04 14:21:20;;;;;;;0.20;0.20;;;;;;;;;;5113513;28;20447;-62
2021/06/04 14:23:58;;;;;;;0.20;0.20;;;;;;;;;;5112968;28;20411;-62
2021/06/04 14:26:29;;;;;;;0.20;0.20;;;;;;;;;;5112668;28;20778;-62
2021/06/04 14:28:59;;;;;;;0.20;0.20;;;;;;;;;;5112507;28;20443;-62
2021/06/04 14:31:25;;;;;;;0.20;0.20;;;;;;;;;;5113037;28;20417;-62
2021/06/04 14:33:53;;;;;;;0.20;0.20;;;;;;;;;;5113221;28;20411;-62
2021/06/04 14:36:24;;;;;;;0.20;0.20;;;;;;;;;;5113281;28;20415;-62
2021/06/04 14:38:52;;;;;;;0.20;0.20;;;;;;;;;;5112656;28;20401;-62
2021/06/04 14:41:23;;;;;;;0.20;0.20;;;;;;;;;;5112948;28;20399;-62
2021/06/04 14:43:52;;;;;;;0.20;0.20;;;;;;;;;;5112850;28;20403;-62
2021/06/04 14:46:20;;;;;;;0.20;0.20;;;;;;;;;;5112788;28;20385;-62
2021/06/04 14:48:46;;;;;;;0.20;0.20;;;;;;;;;;5112467;28;20398;-60
2021/06/04 14:51:12;;;;;;;0.20;0.20;;;;;;;;;;5112797;28;20399;-62
2021/06/04 14:53:38;;;;;;;0.20;0.20;;;;;;;;;;5128214;27;20410;-62
2021/06/04 14:56:07;;;;;;;0.20;0.20;;;;;;;;;;5133193;27;20765;-62
2021/06/04 14:58:33;;;;;;;0.20;0.20;;;;;;;;;;5132850;27;20438;-62
2021/06/04 15:00:59;;;;;;;0.20;0.20;;;;;;;;;;5132985;27;20399;-62